sensor_id;sensor_type;location;lat;lon;timestamp;P1;durP1;ratioP1;P2;durP2;ratioP2
18685;SDS011;9473;52.342;13.110;2023-07-31T00:00:13;3.88;;;2.03;;
18685;SDS011;9473;52.342;13.110;2023-07-31T00:02:40;6.90;;;2.08;;
18685;SDS011;9473;52.342;13.110;2023-07-31T00:05:07;6.13;;;1.90;;
18685;SDS011;9473;52.342;13.110;2023-07-31T00:07:34;5.95;;;2.03;;
18685;SDS011;9473;52.342;13.110;2023-07-31T00:10:01;5.13;;;2.00;;
18685;SDS011;9473;52.342;13.110;2023-07-31T00:12:28;4.18;;;1.92;;
18685;SDS011;9473;52.342;13.110;2023-07-31T00:14:55;5.28;;;2.33;;
18685;SDS011;9473;52.342;13.110;2023-07-31T00:17:23;6.10;;;2.10;;
18685;SDS011;9473;52.342;13.110;2023-07-31T00:19:50;5.85;;;1.90;;
18685;SDS011;9473;52.342;13.110;2023-07-31T00:22:17;4.75;;;2.13;;
18685;SDS011;9473;52.342;13.110;2023-07-31T00:24:44;6.22;;;2.22;;
18685;SDS011;9473;52.342;13.110;2023-07-31T00:27:11;6.15;;;2.17;;
18685;SDS011;9473;52.342;13.110;2023-07-31T00:29:38;6.95;;;2.38;;
18685;SDS011;9473;52.342;13.110;2023-07-31T00:32:05;8.60;;;2.38;;
18685;SDS011;9473;52.342;13.110;2023-07-31T00:34:33;6.55;;;2.17;;
18685;SDS011;9473;52.342;13.110;2023-07-31T00:37:00;6.30;;;2.60;;
18685;SDS011;9473;52.342;13.110;2023-07-31T00:39:27;6.45;;;2.33;;
18685;SDS011;9473;52.342;13.110;2023-07-31T00:41:54;5.70;;;2.50;;
18685;SDS011;9473;52.342;13.110;2023-07-31T00:44:21;4.38;;;2.10;;
18685;SDS011;9473;52.342;13.110;2023-07-31T00:46:48;5.00;;;2.50;;
18685;SDS011;9473;52.342;13.110;2023-07-31T00:49:15;8.57;;;2.92;;
18685;SDS011;9473;52.342;13.110;2023-07-31T00:51:43;11.27;;;3.03;;
18685;SDS011;9473;52.342;13.110;2023-07-31T00:54:10;4.50;;;2.30;;
18685;SDS011;9473;52.342;13.110;2023-07-31T00:56:37;4.50;;;2.17;;
18685;SDS011;9473;52.342;13.110;2023-07-31T00:59:04;8.13;;;3.28;;
18685;SDS011;9473;52.342;13.110;2023-07-31T01:01:31;5.57;;;2.30;;
18685;SDS011;9473;52.342;13.110;2023-07-31T01:03:58;3.55;;;2.55;;
18685;SDS011;9473;52.342;13.110;2023-07-31T01:06:26;7.47;;;2.80;;
18685;SDS011;9473;52.342;13.110;2023-07-31T01:08:58;5.90;;;2.60;;
18685;SDS011;9473;52.342;13.110;2023-07-31T01:11:28;4.18;;;2.88;;
18685;SDS011;9473;52.342;13.110;2023-07-31T01:13:56;6.22;;;2.80;;
18685;SDS011;9473;52.342;13.110;2023-07-31T01:16:23;7.22;;;2.50;;
18685;SDS011;9473;52.342;13.110;2023-07-31T01:18:50;5.35;;;2.60;;
18685;SDS011;9473;52.342;13.110;2023-07-31T01:21:21;6.47;;;2.53;;
18685;SDS011;9473;52.342;13.110;2023-07-31T01:26:36;5.22;;;2.60;;
18685;SDS011;9473;52.342;13.110;2023-07-31T01:29:04;8.10;;;2.70;;
18685;SDS011;9473;52.342;13.110;2023-07-31T01:31:33;6.50;;;2.80;;
18685;SDS011;9473;52.342;13.110;2023-07-31T01:34:03;7.72;;;2.80;;
18685;SDS011;9473;52.342;13.110;2023-07-31T01:36:30;4.85;;;2.65;;
18685;SDS011;9473;52.342;13.110;2023-07-31T01:38:57;5.97;;;2.42;;
18685;SDS011;9473;52.342;13.110;2023-07-31T01:41:25;4.95;;;2.70;;
18685;SDS011;9473;52.342;13.110;2023-07-31T01:43:53;6.95;;;2.80;;
18685;SDS011;9473;52.342;13.110;2023-07-31T01:46:20;8.02;;;2.97;;
18685;SDS011;9473;52.342;13.110;2023-07-31T01:48:47;4.15;;;2.60;;
18685;SDS011;9473;52.342;13.110;2023-07-31T01:51:14;5.82;;;2.53;;
18685;SDS011;9473;52.342;13.110;2023-07-31T01:53:41;6.18;;;2.88;;
18685;SDS011;9473;52.342;13.110;2023-07-31T01:56:07;6.47;;;2.83;;
18685;SDS011;9473;52.342;13.110;2023-07-31T01:58:35;5.10;;;3.00;;
18685;SDS011;9473;52.342;13.110;2023-07-31T02:01:03;6.32;;;2.80;;
18685;SDS011;9473;52.342;13.110;2023-07-31T02:03:30;7.10;;;3.30;;
18685;SDS011;9473;52.342;13.110;2023-07-31T02:05:57;5.43;;;2.85;;
18685;SDS011;9473;52.342;13.110;2023-07-31T02:08:24;7.85;;;3.30;;
18685;SDS011;9473;52.342;13.110;2023-07-31T02:10:51;6.93;;;2.88;;
18685;SDS011;9473;52.342;13.110;2023-07-31T02:13:18;9.00;;;3.20;;
18685;SDS011;9473;52.342;13.110;2023-07-31T02:15:45;8.45;;;2.90;;
18685;SDS011;9473;52.342;13.110;2023-07-31T02:18:13;6.57;;;3.38;;
18685;SDS011;9473;52.342;13.110;2023-07-31T02:20:40;4.40;;;3.08;;
18685;SDS011;9473;52.342;13.110;2023-07-31T02:23:07;6.57;;;3.00;;
18685;SDS011;9473;52.342;13.110;2023-07-31T02:25:34;8.27;;;3.30;;
18685;SDS011;9473;52.342;13.110;2023-07-31T02:28:01;5.80;;;3.08;;
18685;SDS011;9473;52.342;13.110;2023-07-31T02:30:28;8.02;;;3.17;;
18685;SDS011;9473;52.342;13.110;2023-07-31T02:32:54;6.38;;;3.10;;
18685;SDS011;9473;52.342;13.110;2023-07-31T02:35:23;6.95;;;3.00;;
18685;SDS011;9473;52.342;13.110;2023-07-31T02:37:50;9.57;;;3.42;;
18685;SDS011;9473;52.342;13.110;2023-07-31T02:40:16;5.20;;;3.00;;
18685;SDS011;9473;52.342;13.110;2023-07-31T02:42:43;6.35;;;2.95;;
18685;SDS011;9473;52.342;13.110;2023-07-31T02:45:10;5.75;;;3.38;;
18685;SDS011;9473;52.342;13.110;2023-07-31T02:47:38;6.05;;;2.97;;
18685;SDS011;9473;52.342;13.110;2023-07-31T02:50:05;6.63;;;3.15;;
18685;SDS011;9473;52.342;13.110;2023-07-31T02:52:33;7.32;;;3.53;;
18685;SDS011;9473;52.342;13.110;2023-07-31T02:55:00;6.32;;;3.30;;
18685;SDS011;9473;52.342;13.110;2023-07-31T02:57:27;6.70;;;3.50;;
18685;SDS011;9473;52.342;13.110;2023-07-31T02:59:54;6.07;;;3.47;;
18685;SDS011;9473;52.342;13.110;2023-07-31T03:02:21;5.78;;;3.42;;
18685;SDS011;9473;52.342;13.110;2023-07-31T03:04:48;7.05;;;3.58;;
18685;SDS011;9473;52.342;13.110;2023-07-31T03:07:15;6.00;;;3.28;;
18685;SDS011;9473;52.342;13.110;2023-07-31T03:09:43;8.65;;;3.08;;
18685;SDS011;9473;52.342;13.110;2023-07-31T03:12:10;4.20;;;3.28;;
18685;SDS011;9473;52.342;13.110;2023-07-31T03:14:37;8.98;;;3.28;;
18685;SDS011;9473;52.342;13.110;2023-07-31T03:17:03;6.38;;;3.30;;
18685;SDS011;9473;52.342;13.110;2023-07-31T03:19:31;6.60;;;3.22;;
18685;SDS011;9473;52.342;13.110;2023-07-31T03:21:58;5.50;;;3.00;;
18685;SDS011;9473;52.342;13.110;2023-07-31T03:24:25;7.43;;;3.42;;
18685;SDS011;9473;52.342;13.110;2023-07-31T03:26:53;6.13;;;3.17;;
18685;SDS011;9473;52.342;13.110;2023-07-31T03:29:20;6.85;;;3.40;;
18685;SDS011;9473;52.342;13.110;2023-07-31T03:31:47;5.78;;;3.60;;
18685;SDS011;9473;52.342;13.110;2023-07-31T03:34:14;7.68;;;3.53;;
18685;SDS011;9473;52.342;13.110;2023-07-31T03:36:41;7.13;;;3.33;;
18685;SDS011;9473;52.342;13.110;2023-07-31T03:39:08;6.78;;;3.58;;
18685;SDS011;9473;52.342;13.110;2023-07-31T03:41:34;8.05;;;3.80;;
18685;SDS011;9473;52.342;13.110;2023-07-31T03:44:03;8.05;;;3.30;;
18685;SDS011;9473;52.342;13.110;2023-07-31T03:46:30;5.97;;;3.17;;
18685;SDS011;9473;52.342;13.110;2023-07-31T03:48:57;8.93;;;3.70;;
18685;SDS011;9473;52.342;13.110;2023-07-31T03:51:23;5.90;;;3.55;;
18685;SDS011;9473;52.342;13.110;2023-07-31T03:53:50;6.15;;;3.38;;
18685;SDS011;9473;52.342;13.110;2023-07-31T03:56:17;7.57;;;3.55;;
18685;SDS011;9473;52.342;13.110;2023-07-31T03:58:44;4.55;;;3.10;;
18685;SDS011;9473;52.342;13.110;2023-07-31T04:01:12;8.13;;;3.40;;
18685;SDS011;9473;52.342;13.110;2023-07-31T04:03:39;7.00;;;3.20;;
18685;SDS011;9473;52.342;13.110;2023-07-31T04:06:06;6.55;;;3.25;;
18685;SDS011;9473;52.342;13.110;2023-07-31T04:08:33;12.27;;;3.65;;
18685;SDS011;9473;52.342;13.110;2023-07-31T04:11:00;7.43;;;3.42;;
18685;SDS011;9473;52.342;13.110;2023-07-31T04:13:28;7.95;;;3.47;;
18685;SDS011;9473;52.342;13.110;2023-07-31T04:15:55;7.10;;;3.30;;
18685;SDS011;9473;52.342;13.110;2023-07-31T04:18:24;10.43;;;3.95;;
18685;SDS011;9473;52.342;13.110;2023-07-31T04:20:51;6.35;;;3.38;;
18685;SDS011;9473;52.342;13.110;2023-07-31T04:23:18;7.03;;;3.45;;
18685;SDS011;9473;52.342;13.110;2023-07-31T04:25:45;7.57;;;3.65;;
18685;SDS011;9473;52.342;13.110;2023-07-31T04:28:12;7.35;;;3.45;;
18685;SDS011;9473;52.342;13.110;2023-07-31T04:30:39;5.97;;;3.45;;
18685;SDS011;9473;52.342;13.110;2023-07-31T04:33:05;8.52;;;3.95;;
18685;SDS011;9473;52.342;13.110;2023-07-31T04:35:34;6.85;;;3.33;;
18685;SDS011;9473;52.342;13.110;2023-07-31T04:38:01;7.47;;;3.58;;
18685;SDS011;9473;52.342;13.110;2023-07-31T04:40:28;5.75;;;3.50;;
18685;SDS011;9473;52.342;13.110;2023-07-31T04:42:54;6.82;;;3.35;;
18685;SDS011;9473;52.342;13.110;2023-07-31T04:45:21;9.38;;;3.70;;
18685;SDS011;9473;52.342;13.110;2023-07-31T04:47:48;8.73;;;3.20;;
18685;SDS011;9473;52.342;13.110;2023-07-31T04:50:15;7.32;;;3.58;;
18685;SDS011;9473;52.342;13.110;2023-07-31T04:52:44;5.68;;;3.58;;
18685;SDS011;9473;52.342;13.110;2023-07-31T04:55:10;7.22;;;3.10;;
18685;SDS011;9473;52.342;13.110;2023-07-31T04:57:38;7.28;;;3.08;;
18685;SDS011;9473;52.342;13.110;2023-07-31T05:00:06;8.43;;;3.20;;
18685;SDS011;9473;52.342;13.110;2023-07-31T05:02:33;4.75;;;2.85;;
18685;SDS011;9473;52.342;13.110;2023-07-31T05:05:00;5.30;;;3.00;;
18685;SDS011;9473;52.342;13.110;2023-07-31T05:07:27;6.68;;;2.80;;
18685;SDS011;9473;52.342;13.110;2023-07-31T05:09:55;6.03;;;2.80;;
18685;SDS011;9473;52.342;13.110;2023-07-31T05:12:22;5.45;;;2.97;;
18685;SDS011;9473;52.342;13.110;2023-07-31T05:14:49;5.07;;;2.83;;
18685;SDS011;9473;52.342;13.110;2023-07-31T05:17:16;6.05;;;3.05;;
18685;SDS011;9473;52.342;13.110;2023-07-31T05:19:43;6.97;;;2.95;;
18685;SDS011;9473;52.342;13.110;2023-07-31T05:22:10;8.07;;;2.80;;
18685;SDS011;9473;52.342;13.110;2023-07-31T05:24:37;9.40;;;3.08;;
18685;SDS011;9473;52.342;13.110;2023-07-31T05:27:05;5.85;;;2.33;;
18685;SDS011;9473;52.342;13.110;2023-07-31T05:29:34;8.30;;;2.95;;
18685;SDS011;9473;52.342;13.110;2023-07-31T05:32:01;8.75;;;2.67;;
18685;SDS011;9473;52.342;13.110;2023-07-31T05:34:28;4.68;;;2.38;;
18685;SDS011;9473;52.342;13.110;2023-07-31T05:36:55;6.15;;;2.45;;
18685;SDS011;9473;52.342;13.110;2023-07-31T05:39:22;7.30;;;2.40;;
18685;SDS011;9473;52.342;13.110;2023-07-31T05:41:49;4.03;;;2.20;;
18685;SDS011;9473;52.342;13.110;2023-07-31T05:44:17;4.68;;;2.40;;
18685;SDS011;9473;52.342;13.110;2023-07-31T05:46:44;3.97;;;2.20;;
18685;SDS011;9473;52.342;13.110;2023-07-31T05:49:11;5.57;;;2.50;;
18685;SDS011;9473;52.342;13.110;2023-07-31T05:51:38;5.28;;;2.20;;
18685;SDS011;9473;52.342;13.110;2023-07-31T05:54:05;4.97;;;2.33;;
18685;SDS011;9473;52.342;13.110;2023-07-31T05:56:32;3.42;;;1.90;;
18685;SDS011;9473;52.342;13.110;2023-07-31T05:58:59;5.60;;;2.33;;
18685;SDS011;9473;52.342;13.110;2023-07-31T06:01:27;6.40;;;2.45;;
18685;SDS011;9473;52.342;13.110;2023-07-31T06:03:54;6.60;;;2.08;;
18685;SDS011;9473;52.342;13.110;2023-07-31T06:06:21;3.83;;;1.92;;
18685;SDS011;9473;52.342;13.110;2023-07-31T06:08:48;2.70;;;2.10;;
18685;SDS011;9473;52.342;13.110;2023-07-31T06:11:14;6.25;;;2.38;;
18685;SDS011;9473;52.342;13.110;2023-07-31T06:13:41;4.32;;;1.85;;
18685;SDS011;9473;52.342;13.110;2023-07-31T06:16:09;6.47;;;2.13;;
18685;SDS011;9473;52.342;13.110;2023-07-31T06:18:37;8.15;;;2.50;;
18685;SDS011;9473;52.342;13.110;2023-07-31T06:21:04;5.07;;;2.30;;
18685;SDS011;9473;52.342;13.110;2023-07-31T06:23:31;5.95;;;2.28;;
18685;SDS011;9473;52.342;13.110;2023-07-31T06:25:58;7.60;;;2.33;;
18685;SDS011;9473;52.342;13.110;2023-07-31T06:28:27;6.15;;;2.30;;
18685;SDS011;9473;52.342;13.110;2023-07-31T06:30:55;6.40;;;2.20;;
18685;SDS011;9473;52.342;13.110;2023-07-31T06:33:21;5.07;;;2.00;;
18685;SDS011;9473;52.342;13.110;2023-07-31T06:35:50;5.20;;;2.30;;
18685;SDS011;9473;52.342;13.110;2023-07-31T06:38:18;5.93;;;2.25;;
18685;SDS011;9473;52.342;13.110;2023-07-31T06:40:45;5.05;;;2.17;;
18685;SDS011;9473;52.342;13.110;2023-07-31T06:43:12;5.53;;;1.80;;
18685;SDS011;9473;52.342;13.110;2023-07-31T06:45:39;5.07;;;1.77;;
18685;SDS011;9473;52.342;13.110;2023-07-31T06:48:06;7.38;;;2.45;;
18685;SDS011;9473;52.342;13.110;2023-07-31T06:50:33;6.35;;;2.08;;
18685;SDS011;9473;52.342;13.110;2023-07-31T06:53:01;5.30;;;2.25;;
18685;SDS011;9473;52.342;13.110;2023-07-31T06:55:28;5.45;;;2.20;;
18685;SDS011;9473;52.342;13.110;2023-07-31T06:57:55;5.35;;;2.20;;
18685;SDS011;9473;52.342;13.110;2023-07-31T07:00:22;7.30;;;2.50;;
18685;SDS011;9473;52.342;13.110;2023-07-31T07:02:49;6.45;;;2.72;;
18685;SDS011;9473;52.342;13.110;2023-07-31T07:05:16;6.78;;;2.33;;
18685;SDS011;9473;52.342;13.110;2023-07-31T07:07:43;4.78;;;2.20;;
18685;SDS011;9473;52.342;13.110;2023-07-31T07:10:12;4.65;;;2.38;;
18685;SDS011;9473;52.342;13.110;2023-07-31T07:12:39;6.40;;;2.15;;
18685;SDS011;9473;52.342;13.110;2023-07-31T07:15:06;3.97;;;2.13;;
18685;SDS011;9473;52.342;13.110;2023-07-31T07:17:33;5.82;;;2.13;;
18685;SDS011;9473;52.342;13.110;2023-07-31T07:20:00;3.97;;;2.15;;
18685;SDS011;9473;52.342;13.110;2023-07-31T07:22:28;7.05;;;2.40;;
18685;SDS011;9473;52.342;13.110;2023-07-31T07:24:55;2.50;;;1.92;;
18685;SDS011;9473;52.342;13.110;2023-07-31T07:27:23;5.05;;;2.38;;
18685;SDS011;9473;52.342;13.110;2023-07-31T07:29:50;4.10;;;2.22;;
18685;SDS011;9473;52.342;13.110;2023-07-31T07:32:18;7.65;;;2.33;;
18685;SDS011;9473;52.342;13.110;2023-07-31T07:34:45;5.00;;;2.28;;
18685;SDS011;9473;52.342;13.110;2023-07-31T07:37:12;5.43;;;2.40;;
18685;SDS011;9473;52.342;13.110;2023-07-31T07:39:39;6.20;;;2.22;;
18685;SDS011;9473;52.342;13.110;2023-07-31T07:42:06;3.70;;;2.13;;
18685;SDS011;9473;52.342;13.110;2023-07-31T07:44:34;6.57;;;3.33;;
18685;SDS011;9473;52.342;13.110;2023-07-31T07:47:01;4.63;;;2.28;;
18685;SDS011;9473;52.342;13.110;2023-07-31T07:49:28;5.10;;;2.72;;
18685;SDS011;9473;52.342;13.110;2023-07-31T07:51:55;5.95;;;2.55;;
18685;SDS011;9473;52.342;13.110;2023-07-31T07:54:22;6.32;;;2.72;;
18685;SDS011;9473;52.342;13.110;2023-07-31T07:56:48;4.65;;;2.40;;
18685;SDS011;9473;52.342;13.110;2023-07-31T07:59:15;6.63;;;2.88;;
18685;SDS011;9473;52.342;13.110;2023-07-31T08:01:44;5.30;;;2.90;;
18685;SDS011;9473;52.342;13.110;2023-07-31T08:04:10;6.20;;;2.70;;
18685;SDS011;9473;52.342;13.110;2023-07-31T08:06:37;5.78;;;2.83;;
18685;SDS011;9473;52.342;13.110;2023-07-31T08:09:04;6.28;;;2.78;;
18685;SDS011;9473;52.342;13.110;2023-07-31T08:11:32;4.20;;;2.40;;
18685;SDS011;9473;52.342;13.110;2023-07-31T08:13:59;4.28;;;2.70;;
18685;SDS011;9473;52.342;13.110;2023-07-31T08:16:26;5.68;;;2.70;;
18685;SDS011;9473;52.342;13.110;2023-07-31T08:18:54;4.82;;;2.65;;
18685;SDS011;9473;52.342;13.110;2023-07-31T08:21:21;6.63;;;2.67;;
18685;SDS011;9473;52.342;13.110;2023-07-31T08:23:48;6.20;;;2.70;;
18685;SDS011;9473;52.342;13.110;2023-07-31T08:26:15;6.38;;;2.60;;
18685;SDS011;9473;52.342;13.110;2023-07-31T08:28:42;5.38;;;2.45;;
18685;SDS011;9473;52.342;13.110;2023-07-31T08:31:09;6.55;;;2.60;;
18685;SDS011;9473;52.342;13.110;2023-07-31T08:33:36;7.05;;;2.00;;
18685;SDS011;9473;52.342;13.110;2023-07-31T08:36:04;3.47;;;2.17;;
18685;SDS011;9473;52.342;13.110;2023-07-31T08:38:31;3.55;;;1.65;;
18685;SDS011;9473;52.342;13.110;2023-07-31T08:40:58;3.53;;;1.90;;
18685;SDS011;9473;52.342;13.110;2023-07-31T08:43:26;6.72;;;1.83;;
18685;SDS011;9473;52.342;13.110;2023-07-31T08:45:53;2.92;;;1.40;;
18685;SDS011;9473;52.342;13.110;2023-07-31T08:48:21;2.63;;;1.52;;
18685;SDS011;9473;52.342;13.110;2023-07-31T08:50:48;1.92;;;1.40;;
18685;SDS011;9473;52.342;13.110;2023-07-31T08:53:16;1.50;;;1.20;;
18685;SDS011;9473;52.342;13.110;2023-07-31T08:55:44;2.30;;;1.02;;
18685;SDS011;9473;52.342;13.110;2023-07-31T08:58:12;2.28;;;0.90;;
18685;SDS011;9473;52.342;13.110;2023-07-31T09:00:40;1.95;;;1.17;;
18685;SDS011;9473;52.342;13.110;2023-07-31T09:03:09;4.10;;;1.00;;
18685;SDS011;9473;52.342;13.110;2023-07-31T09:05:36;1.08;;;0.68;;
18685;SDS011;9473;52.342;13.110;2023-07-31T09:08:05;1.20;;;1.10;;
18685;SDS011;9473;52.342;13.110;2023-07-31T09:10:34;1.73;;;1.00;;
18685;SDS011;9473;52.342;13.110;2023-07-31T09:13:01;0.85;;;0.70;;
18685;SDS011;9473;52.342;13.110;2023-07-31T09:15:29;3.83;;;1.00;;
18685;SDS011;9473;52.342;13.110;2023-07-31T09:17:58;1.35;;;0.98;;
18685;SDS011;9473;52.342;13.110;2023-07-31T09:20:26;1.98;;;1.40;;
18685;SDS011;9473;52.342;13.110;2023-07-31T09:22:53;2.60;;;1.80;;
18685;SDS011;9473;52.342;13.110;2023-07-31T09:25:20;2.88;;;1.80;;
18685;SDS011;9473;52.342;13.110;2023-07-31T09:27:50;3.80;;;2.08;;
18685;SDS011;9473;52.342;13.110;2023-07-31T09:30:18;4.60;;;1.98;;
18685;SDS011;9473;52.342;13.110;2023-07-31T09:32:45;4.35;;;2.58;;
18685;SDS011;9473;52.342;13.110;2023-07-31T09:35:13;6.53;;;3.08;;
18685;SDS011;9473;52.342;13.110;2023-07-31T09:37:40;8.52;;;3.40;;
18685;SDS011;9473;52.342;13.110;2023-07-31T09:40:07;7.07;;;3.45;;
18685;SDS011;9473;52.342;13.110;2023-07-31T09:42:34;8.18;;;3.60;;
18685;SDS011;9473;52.342;13.110;2023-07-31T09:45:09;4.13;;;2.55;;
18685;SDS011;9473;52.342;13.110;2023-07-31T09:47:36;5.70;;;3.22;;
18685;SDS011;9473;52.342;13.110;2023-07-31T09:50:06;9.85;;;3.30;;
18685;SDS011;9473;52.342;13.110;2023-07-31T09:52:34;7.35;;;3.47;;
18685;SDS011;9473;52.342;13.110;2023-07-31T09:55:01;8.35;;;3.53;;
18685;SDS011;9473;52.342;13.110;2023-07-31T09:57:28;9.52;;;3.38;;
18685;SDS011;9473;52.342;13.110;2023-07-31T09:59:55;5.80;;;3.03;;
18685;SDS011;9473;52.342;13.110;2023-07-31T10:02:23;8.02;;;3.58;;
18685;SDS011;9473;52.342;13.110;2023-07-31T10:04:50;7.18;;;3.75;;
18685;SDS011;9473;52.342;13.110;2023-07-31T10:07:18;6.68;;;3.13;;
18685;SDS011;9473;52.342;13.110;2023-07-31T10:09:47;7.75;;;3.47;;
18685;SDS011;9473;52.342;13.110;2023-07-31T10:12:14;5.20;;;3.25;;
18685;SDS011;9473;52.342;13.110;2023-07-31T10:14:41;5.78;;;3.65;;
18685;SDS011;9473;52.342;13.110;2023-07-31T10:17:09;9.00;;;3.65;;
18685;SDS011;9473;52.342;13.110;2023-07-31T10:19:37;8.57;;;4.30;;
18685;SDS011;9473;52.342;13.110;2023-07-31T10:22:05;7.38;;;3.50;;
18685;SDS011;9473;52.342;13.110;2023-07-31T10:24:32;6.60;;;3.45;;
18685;SDS011;9473;52.342;13.110;2023-07-31T10:27:00;9.98;;;3.70;;
18685;SDS011;9473;52.342;13.110;2023-07-31T10:29:28;6.50;;;3.67;;
18685;SDS011;9473;52.342;13.110;2023-07-31T10:31:55;5.75;;;3.55;;
18685;SDS011;9473;52.342;13.110;2023-07-31T10:34:22;7.82;;;3.90;;
18685;SDS011;9473;52.342;13.110;2023-07-31T10:36:51;12.88;;;4.57;;
18685;SDS011;9473;52.342;13.110;2023-07-31T10:39:38;6.97;;;3.60;;
18685;SDS011;9473;52.342;13.110;2023-07-31T10:42:11;6.05;;;4.13;;
18685;SDS011;9473;52.342;13.110;2023-07-31T10:44:43;9.95;;;4.07;;
18685;SDS011;9473;52.342;13.110;2023-07-31T10:47:10;10.05;;;3.88;;
18685;SDS011;9473;52.342;13.110;2023-07-31T10:49:36;8.20;;;3.55;;
18685;SDS011;9473;52.342;13.110;2023-07-31T10:52:07;7.07;;;3.30;;
18685;SDS011;9473;52.342;13.110;2023-07-31T10:54:37;7.60;;;3.13;;
18685;SDS011;9473;52.342;13.110;2023-07-31T10:57:09;7.60;;;3.70;;
18685;SDS011;9473;52.342;13.110;2023-07-31T10:59:45;6.30;;;3.03;;
18685;SDS011;9473;52.342;13.110;2023-07-31T11:02:23;7.25;;;3.50;;
18685;SDS011;9473;52.342;13.110;2023-07-31T11:05:05;5.25;;;2.92;;
18685;SDS011;9473;52.342;13.110;2023-07-31T11:07:47;6.97;;;3.38;;
18685;SDS011;9473;52.342;13.110;2023-07-31T11:10:16;7.97;;;3.17;;
18685;SDS011;9473;52.342;13.110;2023-07-31T11:12:43;7.45;;;3.25;;
18685;SDS011;9473;52.342;13.110;2023-07-31T11:15:09;6.88;;;2.83;;
18685;SDS011;9473;52.342;13.110;2023-07-31T11:17:38;6.65;;;3.17;;
18685;SDS011;9473;52.342;13.110;2023-07-31T11:20:05;7.55;;;2.95;;
18685;SDS011;9473;52.342;13.110;2023-07-31T11:22:32;4.80;;;2.92;;
18685;SDS011;9473;52.342;13.110;2023-07-31T11:25:02;7.25;;;3.38;;
18685;SDS011;9473;52.342;13.110;2023-07-31T11:27:29;5.40;;;2.60;;
18685;SDS011;9473;52.342;13.110;2023-07-31T11:29:59;5.88;;;3.05;;
18685;SDS011;9473;52.342;13.110;2023-07-31T11:32:27;6.28;;;3.03;;
18685;SDS011;9473;52.342;13.110;2023-07-31T11:34:54;4.25;;;2.88;;
18685;SDS011;9473;52.342;13.110;2023-07-31T11:37:21;5.22;;;2.78;;
18685;SDS011;9473;52.342;13.110;2023-07-31T11:39:58;8.15;;;3.28;;
18685;SDS011;9473;52.342;13.110;2023-07-31T11:42:26;6.93;;;3.10;;
18685;SDS011;9473;52.342;13.110;2023-07-31T11:44:53;6.38;;;2.70;;
18685;SDS011;9473;52.342;13.110;2023-07-31T11:47:20;6.45;;;2.92;;
18685;SDS011;9473;52.342;13.110;2023-07-31T11:49:47;4.70;;;2.58;;
18685;SDS011;9473;52.342;13.110;2023-07-31T11:52:14;8.05;;;2.60;;
18685;SDS011;9473;52.342;13.110;2023-07-31T11:54:42;4.63;;;2.50;;
18685;SDS011;9473;52.342;13.110;2023-07-31T11:57:09;4.88;;;2.83;;
18685;SDS011;9473;52.342;13.110;2023-07-31T11:59:38;6.25;;;2.55;;
18685;SDS011;9473;52.342;13.110;2023-07-31T12:02:05;6.70;;;2.38;;
18685;SDS011;9473;52.342;13.110;2023-07-31T12:04:32;5.88;;;2.42;;
18685;SDS011;9473;52.342;13.110;2023-07-31T12:06:59;5.70;;;2.70;;
18685;SDS011;9473;52.342;13.110;2023-07-31T12:09:26;5.85;;;2.55;;
18685;SDS011;9473;52.342;13.110;2023-07-31T12:11:53;5.18;;;2.58;;
18685;SDS011;9473;52.342;13.110;2023-07-31T12:14:20;4.95;;;2.70;;
18685;SDS011;9473;52.342;13.110;2023-07-31T12:16:49;5.72;;;2.90;;
18685;SDS011;9473;52.342;13.110;2023-07-31T12:19:19;7.28;;;2.65;;
18685;SDS011;9473;52.342;13.110;2023-07-31T12:21:46;5.20;;;2.70;;
18685;SDS011;9473;52.342;13.110;2023-07-31T12:24:13;3.78;;;2.17;;
18685;SDS011;9473;52.342;13.110;2023-07-31T12:26:40;5.45;;;2.20;;
18685;SDS011;9473;52.342;13.110;2023-07-31T12:29:07;4.20;;;2.00;;
18685;SDS011;9473;52.342;13.110;2023-07-31T12:31:34;6.05;;;2.20;;
18685;SDS011;9473;52.342;13.110;2023-07-31T12:34:03;4.93;;;2.53;;
18685;SDS011;9473;52.342;13.110;2023-07-31T12:36:29;2.70;;;1.77;;
18685;SDS011;9473;52.342;13.110;2023-07-31T12:39:00;5.25;;;1.90;;
18685;SDS011;9473;52.342;13.110;2023-07-31T12:41:28;5.45;;;2.20;;
18685;SDS011;9473;52.342;13.110;2023-07-31T12:43:55;4.70;;;2.00;;
18685;SDS011;9473;52.342;13.110;2023-07-31T12:46:22;4.53;;;2.35;;
18685;SDS011;9473;52.342;13.110;2023-07-31T12:48:49;3.78;;;1.85;;
18685;SDS011;9473;52.342;13.110;2023-07-31T12:51:17;3.45;;;1.80;;
18685;SDS011;9473;52.342;13.110;2023-07-31T12:53:44;5.60;;;2.10;;
18685;SDS011;9473;52.342;13.110;2023-07-31T12:56:11;4.32;;;2.00;;
18685;SDS011;9473;52.342;13.110;2023-07-31T12:58:38;3.85;;;2.00;;
18685;SDS011;9473;52.342;13.110;2023-07-31T13:01:05;5.78;;;2.20;;
18685;SDS011;9473;52.342;13.110;2023-07-31T13:03:32;4.72;;;2.50;;
18685;SDS011;9473;52.342;13.110;2023-07-31T13:05:59;3.75;;;2.15;;
18685;SDS011;9473;52.342;13.110;2023-07-31T13:08:27;4.45;;;2.45;;
18685;SDS011;9473;52.342;13.110;2023-07-31T13:10:54;5.72;;;2.33;;
18685;SDS011;9473;52.342;13.110;2023-07-31T13:13:21;5.45;;;2.38;;
18685;SDS011;9473;52.342;13.110;2023-07-31T13:15:48;5.90;;;2.50;;
18685;SDS011;9473;52.342;13.110;2023-07-31T13:18:15;4.57;;;2.35;;
18685;SDS011;9473;52.342;13.110;2023-07-31T13:20:42;6.00;;;2.42;;
18685;SDS011;9473;52.342;13.110;2023-07-31T13:23:09;9.57;;;2.50;;
18685;SDS011;9473;52.342;13.110;2023-07-31T13:25:37;4.75;;;2.42;;
18685;SDS011;9473;52.342;13.110;2023-07-31T13:28:04;5.20;;;2.70;;
18685;SDS011;9473;52.342;13.110;2023-07-31T13:30:31;4.35;;;2.63;;
18685;SDS011;9473;52.342;13.110;2023-07-31T13:32:57;4.97;;;2.65;;
18685;SDS011;9473;52.342;13.110;2023-07-31T13:35:24;4.95;;;2.72;;
18685;SDS011;9473;52.342;13.110;2023-07-31T13:37:51;5.82;;;2.42;;
18685;SDS011;9473;52.342;13.110;2023-07-31T13:40:18;4.72;;;2.28;;
18685;SDS011;9473;52.342;13.110;2023-07-31T13:42:46;6.88;;;2.20;;
18685;SDS011;9473;52.342;13.110;2023-07-31T13:45:13;3.85;;;2.40;;
18685;SDS011;9473;52.342;13.110;2023-07-31T13:47:40;7.15;;;2.80;;
18685;SDS011;9473;52.342;13.110;2023-07-31T13:50:07;4.68;;;2.38;;
18685;SDS011;9473;52.342;13.110;2023-07-31T13:52:34;6.55;;;2.60;;
18685;SDS011;9473;52.342;13.110;2023-07-31T13:55:01;5.45;;;2.65;;
18685;SDS011;9473;52.342;13.110;2023-07-31T13:57:28;4.05;;;2.53;;
18685;SDS011;9473;52.342;13.110;2023-07-31T13:59:56;5.20;;;2.50;;
18685;SDS011;9473;52.342;13.110;2023-07-31T14:02:23;6.13;;;2.70;;
18685;SDS011;9473;52.342;13.110;2023-07-31T14:04:50;7.43;;;3.42;;
18685;SDS011;9473;52.342;13.110;2023-07-31T14:07:17;6.97;;;2.55;;
18685;SDS011;9473;52.342;13.110;2023-07-31T14:09:44;6.43;;;2.47;;
18685;SDS011;9473;52.342;13.110;2023-07-31T14:12:11;4.70;;;2.70;;
18685;SDS011;9473;52.342;13.110;2023-07-31T14:14:38;5.85;;;2.33;;
18685;SDS011;9473;52.342;13.110;2023-07-31T14:17:06;5.18;;;2.70;;
18685;SDS011;9473;52.342;13.110;2023-07-31T14:19:33;3.67;;;2.60;;
18685;SDS011;9473;52.342;13.110;2023-07-31T14:22:00;6.82;;;2.40;;
18685;SDS011;9473;52.342;13.110;2023-07-31T14:24:27;4.28;;;2.30;;
18685;SDS011;9473;52.342;13.110;2023-07-31T14:26:54;5.20;;;2.30;;
18685;SDS011;9473;52.342;13.110;2023-07-31T14:29:21;5.63;;;2.50;;
18685;SDS011;9473;52.342;13.110;2023-07-31T14:31:49;4.18;;;2.17;;
18685;SDS011;9473;52.342;13.110;2023-07-31T14:34:17;4.15;;;2.45;;
18685;SDS011;9473;52.342;13.110;2023-07-31T14:36:44;5.70;;;2.30;;
18685;SDS011;9473;52.342;13.110;2023-07-31T14:39:11;4.03;;;2.40;;
18685;SDS011;9473;52.342;13.110;2023-07-31T14:41:38;4.80;;;2.22;;
18685;SDS011;9473;52.342;13.110;2023-07-31T14:44:05;5.97;;;2.20;;
18685;SDS011;9473;52.342;13.110;2023-07-31T14:46:32;5.50;;;2.65;;
18685;SDS011;9473;52.342;13.110;2023-07-31T14:48:58;7.00;;;2.50;;
18685;SDS011;9473;52.342;13.110;2023-07-31T14:51:27;4.63;;;2.38;;